TimeEST,TemperatureF,Dew PointF,Humidity,Sea Level PressureIn,VisibilityMPH,Wind Direction,Wind SpeedMPH,Gust SpeedMPH,PrecipitationIn,Events,Conditions,WindDirDegrees,DateUTC
12:51 AM,39.9,37.9,93,30.01,1.5,Calm,Calm,-,0.00,,Overcast,0,2012-12-08 05:51:00
1:28 AM,39.2,37.4,93,30.01,0.2,Calm,Calm,-,N/A,,Overcast,0,2012-12-08 06:28:00
1:51 AM,39.9,39.0,97,30.01,0.2,Calm,Calm,-,N/A,,Overcast,0,2012-12-08 06:51:00
2:16 AM,39.2,37.4,93,30.01,0.2,Calm,Calm,-,0.00,Fog-Rain,Light Rain,0,2012-12-08 07:16:00
2:51 AM,39.0,37.9,96,30.01,0.2,Calm,Calm,-,0.03,Fog-Rain,Light Rain,0,2012-12-08 07:51:00
2:58 AM,39.2,37.4,93,29.99,0.2,NNE,3.5,-,0.00,Fog-Rain,Light Rain,30,2012-12-08 07:58:00
3:51 AM,39.0,37.9,96,29.99,0.5,NNW,3.5,-,0.03,Rain,Light Rain,330,2012-12-08 08:51:00
4:10 AM,39.2,39.2,100,29.98,0.5,NNW,3.5,-,0.02,Rain,Light Rain,340,2012-12-08 09:10:00
4:46 AM,39.2,39.2,100,29.97,0.5,Calm,Calm,-,N/A,Rain,Rain,0,2012-12-08 09:46:00
4:51 AM,39.9,39.0,97,29.97,1.0,Calm,Calm,-,0.08,Rain,Rain,0,2012-12-08 09:51:00
4:59 AM,39.2,39.2,100,29.96,1.0,Calm,Calm,-,0.00,Rain,Light Rain,0,2012-12-08 09:59:00
5:14 AM,39.2,37.4,93,29.96,1.0,Calm,Calm,-,0.00,Rain,Light Rain,0,2012-12-08 10:14:00
5:51 AM,39.0,37.9,96,29.96,1.5,North,3.5,-,0.00,Rain,Light Rain,350,2012-12-08 10:51:00
6:51 AM,39.0,37.9,96,29.95,1.5,NNE,5.8,-,N/A,Rain,Light Rain,20,2012-12-08 11:51:00
7:42 AM,39.2,37.4,93,29.93,1.5,North,4.6,-,N/A,,Overcast,360,2012-12-08 12:42:00
7:51 AM,39.0,37.9,96,29.94,1.5,NW,4.6,-,N/A,,Overcast,320,2012-12-08 12:51:00
8:51 AM,39.9,39.0,97,29.94,2.0,NNW,5.8,-,N/A,Rain,Light Rain,340,2012-12-08 13:51:00
9:51 AM,39.9,39.0,97,29.94,2.0,NNW,5.8,-,N/A,,Overcast,340,2012-12-08 14:51:00
10:51 AM,41.0,39.0,93,29.92,2.0,North,6.9,-,N/A,,Light Drizzle,350,2012-12-08 15:51:00
11:51 AM,42.1,39.9,92,29.89,2.0,North,5.8,-,N/A,,Overcast,360,2012-12-08 16:51:00
12:51 PM,43.0,41.0,93,29.86,2.0,North,3.5,-,N/A,,Overcast,350,2012-12-08 17:51:00
1:51 PM,43.0,41.0,93,29.86,2.0,Calm,Calm,-,N/A,,Overcast,0,2012-12-08 18:51:00
2:51 PM,43.0,41.0,93,29.88,2.0,Calm,Calm,-,N/A,,Overcast,0,2012-12-08 19:51:00
3:51 PM,43.0,41.0,93,29.88,2.0,Calm,Calm,-,N/A,,Overcast,0,2012-12-08 20:51:00
4:04 PM,42.8,41.0,93,29.88,3.0,Calm,Calm,-,N/A,,Overcast,0,2012-12-08 21:04:00
4:35 PM,42.8,42.8,100,29.88,3.0,South,3.5,-,N/A,,Overcast,190,2012-12-08 21:35:00
4:44 PM,42.8,41.0,93,29.88,1.5,Calm,Calm,-,N/A,,Overcast,0,2012-12-08 21:44:00
4:51 PM,43.0,42.1,97,29.88,0.8,Calm,Calm,-,N/A,,Overcast,0,2012-12-08 21:51:00
5:51 PM,43.0,42.1,97,29.90,2.0,Calm,Calm,-,N/A,,Overcast,0,2012-12-08 22:51:00
6:10 PM,42.8,42.8,100,29.90,1.0,SSE,3.5,-,N/A,,Overcast,160,2012-12-08 23:10:00
6:33 PM,42.8,42.8,100,29.90,0.8,Calm,Calm,-,N/A,,Overcast,0,2012-12-08 23:33:00
6:51 PM,43.0,42.1,97,29.91,0.8,Calm,Calm,-,N/A,,Overcast,0,2012-12-08 23:51:00
7:51 PM,43.0,42.1,97,29.92,0.2,South,4.6,-,N/A,Fog,Fog,170,2012-12-09 00:51:00
8:46 PM,42.8,42.8,100,29.92,0.2,Calm,Calm,-,N/A,Fog,Fog,0,2012-12-09 01:46:00
8:51 PM,43.0,42.1,97,29.93,0.2,Calm,Calm,-,N/A,Fog,Fog,0,2012-12-09 01:51:00
9:24 PM,42.8,42.8,100,29.94,0.2,Calm,Calm,-,N/A,Fog,Fog,0,2012-12-09 02:24:00
9:34 PM,42.8,42.8,100,29.94,0.2,Calm,Calm,-,N/A,Fog,Fog,0,2012-12-09 02:34:00
9:51 PM,42.1,41.0,96,29.94,0.2,Calm,Calm,-,N/A,Fog,Fog,0,2012-12-09 02:51:00
10:25 PM,42.8,41.0,93,29.95,0.1,Calm,Calm,-,N/A,Fog,Fog,0,2012-12-09 03:25:00
10:51 PM,43.0,41.0,93,29.96,0.1,Calm,Calm,-,N/A,Fog,Fog,0,2012-12-09 03:51:00
11:01 PM,42.8,42.8,100,29.96,0.1,Calm,Calm,-,N/A,Fog,Fog,0,2012-12-09 04:01:00
11:16 PM,42.8,41.0,93,29.96,0.2,Calm,Calm,-,N/A,Fog,Fog,0,2012-12-09 04:16:00
11:42 PM,41.0,39.2,93,29.97,0.2,Calm,Calm,-,N/A,Fog,Fog,0,2012-12-09 04:42:00
11:48 PM,41.0,39.2,93,29.97,0.1,Calm,Calm,-,N/A,Fog,Fog,0,2012-12-09 04:48:00
11:51 PM,42.1,39.9,92,29.98,0.1,Calm,Calm,-,N/A,Fog,Fog,0,2012-12-09 04:51:00